sensor_id;sensor_type;location;lat;lon;timestamp;pressure;altitude;pressure_sealevel;temperature;humidity
12879;BME280;20617;49.476;10.986;2023-02-14T00:01:32;100256.94;;;5.03;100.00
12879;BME280;20617;49.476;10.986;2023-02-14T00:03:40;100257.72;;;4.96;100.00
12879;BME280;20617;49.476;10.986;2023-02-14T00:05:45;100254.25;;;4.94;100.00
12879;BME280;20617;49.476;10.986;2023-02-14T00:07:49;100254.16;;;4.86;100.00
12879;BME280;20617;49.476;10.986;2023-02-14T00:09:54;100256.66;;;4.80;100.00
12879;BME280;20617;49.476;10.986;2023-02-14T00:11:59;100260.97;;;4.81;100.00
12879;BME280;20617;49.476;10.986;2023-02-14T00:14:04;100263.44;;;4.72;100.00
12879;BME280;20617;49.476;10.986;2023-02-14T00:16:22;100267.78;;;4.74;100.00
12879;BME280;20617;49.476;10.986;2023-02-14T00:18:27;100259.25;;;4.80;100.00
12879;BME280;20617;49.476;10.986;2023-02-14T00:20:58;100251.47;;;4.77;100.00
12879;BME280;20617;49.476;10.986;2023-02-14T00:23:03;100246.31;;;4.77;100.00
12879;BME280;20617;49.476;10.986;2023-02-14T00:25:08;100244.63;;;4.81;100.00
12879;BME280;20617;49.476;10.986;2023-02-14T00:27:13;100251.59;;;4.86;100.00
12879;BME280;20617;49.476;10.986;2023-02-14T00:29:21;100249.91;;;4.91;100.00
12879;BME280;20617;49.476;10.986;2023-02-14T00:31:26;100255.06;;;4.90;100.00
12879;BME280;20617;49.476;10.986;2023-02-14T00:33:31;100256.78;;;4.89;100.00
12879;BME280;20617;49.476;10.986;2023-02-14T00:35:36;100263.72;;;4.93;100.00
12879;BME280;20617;49.476;10.986;2023-02-14T00:37:43;100256.75;;;4.86;100.00
12879;BME280;20617;49.476;10.986;2023-02-14T00:39:48;100255.84;;;4.84;100.00
12879;BME280;20617;49.476;10.986;2023-02-14T00:41:55;100254.09;;;4.82;100.00
12879;BME280;20617;49.476;10.986;2023-02-14T00:44:01;100253.28;;;4.84;100.00
12879;BME280;20617;49.476;10.986;2023-02-14T00:46:06;100258.34;;;4.80;100.00
12879;BME280;20617;49.476;10.986;2023-02-14T00:48:11;100254.09;;;4.80;100.00
12879;BME280;20617;49.476;10.986;2023-02-14T00:50:16;100253.25;;;4.83;100.00
12879;BME280;20617;49.476;10.986;2023-02-14T00:52:21;100258.44;;;4.84;100.00
12879;BME280;20617;49.476;10.986;2023-02-14T00:54:28;100259.28;;;4.83;100.00
12879;BME280;20617;49.476;10.986;2023-02-14T00:56:33;100256.66;;;4.80;100.00
12879;BME280;20617;49.476;10.986;2023-02-14T00:58:38;100261.00;;;4.84;100.00
12879;BME280;20617;49.476;10.986;2023-02-14T01:00:43;100261.88;;;4.85;100.00
12879;BME280;20617;49.476;10.986;2023-02-14T01:02:48;100272.13;;;4.79;100.00
12879;BME280;20617;49.476;10.986;2023-02-14T01:04:55;100273.69;;;4.67;100.00
12879;BME280;20617;49.476;10.986;2023-02-14T01:07:00;100268.50;;;4.67;100.00
12879;BME280;20617;49.476;10.986;2023-02-14T01:09:05;100267.66;;;4.67;100.00
12879;BME280;20617;49.476;10.986;2023-02-14T01:11:14;100262.56;;;4.71;100.00
12879;BME280;20617;49.476;10.986;2023-02-14T01:13:20;100261.72;;;4.72;100.00
12879;BME280;20617;49.476;10.986;2023-02-14T01:15:24;100261.72;;;4.74;100.00
12879;BME280;20617;49.476;10.986;2023-02-14T01:17:29;100264.28;;;4.72;100.00
12879;BME280;20617;49.476;10.986;2023-02-14T01:19:34;100262.56;;;4.73;100.00
12879;BME280;20617;49.476;10.986;2023-02-14T01:21:43;100256.56;;;4.74;100.00
12879;BME280;20617;49.476;10.986;2023-02-14T01:23:50;100258.31;;;4.75;100.00
12879;BME280;20617;49.476;10.986;2023-02-14T01:25:58;100259.09;;;4.71;100.00
12879;BME280;20617;49.476;10.986;2023-02-14T01:28:05;100258.28;;;4.73;100.00
12879;BME280;20617;49.476;10.986;2023-02-14T01:30:12;100261.72;;;4.74;100.00
12879;BME280;20617;49.476;10.986;2023-02-14T01:32:17;100266.06;;;4.76;100.00
12879;BME280;20617;49.476;10.986;2023-02-14T01:34:24;100267.78;;;4.76;100.00
12879;BME280;20617;49.476;10.986;2023-02-14T01:36:31;100258.19;;;4.66;100.00
12879;BME280;20617;49.476;10.986;2023-02-14T01:38:36;100265.91;;;4.64;100.00
12879;BME280;20617;49.476;10.986;2023-02-14T01:40:41;100267.63;;;4.64;100.00
12879;BME280;20617;49.476;10.986;2023-02-14T01:42:46;100266.75;;;4.65;100.00
12879;BME280;20617;49.476;10.986;2023-02-14T01:45:00;100259.94;;;4.68;100.00
12879;BME280;20617;49.476;10.986;2023-02-14T01:47:07;100260.72;;;4.64;100.00
12879;BME280;20617;49.476;10.986;2023-02-14T01:49:15;100267.69;;;4.68;100.00
12879;BME280;20617;49.476;10.986;2023-02-14T01:51:24;100261.69;;;4.69;100.00
12879;BME280;20617;49.476;10.986;2023-02-14T01:53:29;100259.09;;;4.69;100.00
12879;BME280;20617;49.476;10.986;2023-02-14T01:55:36;100256.34;;;4.59;100.00
12879;BME280;20617;49.476;10.986;2023-02-14T01:57:45;100261.56;;;4.60;100.00
12879;BME280;20617;49.476;10.986;2023-02-14T01:59:57;100257.22;;;4.58;100.00
12879;BME280;20617;49.476;10.986;2023-02-14T02:02:23;100261.47;;;4.56;100.00
12879;BME280;20617;49.476;10.986;2023-02-14T02:04:33;100260.59;;;4.55;100.00
12879;BME280;20617;49.476;10.986;2023-02-14T02:06:44;100268.44;;;4.60;100.00
12879;BME280;20617;49.476;10.986;2023-02-14T02:08:58;100260.66;;;4.58;100.00
12879;BME280;20617;49.476;10.986;2023-02-14T02:11:04;100259.78;;;4.58;100.00
12879;BME280;20617;49.476;10.986;2023-02-14T02:13:15;100250.34;;;4.58;100.00
12879;BME280;20617;49.476;10.986;2023-02-14T02:15:25;100267.56;;;4.61;100.00
12879;BME280;20617;49.476;10.986;2023-02-14T02:17:40;100252.09;;;4.62;100.00
12879;BME280;20617;49.476;10.986;2023-02-14T02:22:55;100248.69;;;4.63;100.00
12879;BME280;20617;49.476;10.986;2023-02-14T02:25:16;100252.06;;;4.59;100.00
12879;BME280;20617;49.476;10.986;2023-02-14T02:35:55;100251.84;;;4.44;100.00
12879;BME280;20617;49.476;10.986;2023-02-14T02:38:16;100254.34;;;4.39;100.00
12879;BME280;20617;49.476;10.986;2023-02-14T02:40:32;100262.88;;;4.34;100.00
12879;BME280;20617;49.476;10.986;2023-02-14T02:42:45;100262.88;;;4.35;100.00
12879;BME280;20617;49.476;10.986;2023-02-14T02:44:57;100249.09;;;4.31;100.00
12879;BME280;20617;49.476;10.986;2023-02-14T02:47:15;100254.22;;;4.30;100.00
12879;BME280;20617;49.476;10.986;2023-02-14T02:49:25;100246.53;;;4.33;100.00
12879;BME280;20617;49.476;10.986;2023-02-14T02:51:54;100243.09;;;4.32;100.00
12879;BME280;20617;49.476;10.986;2023-02-14T02:54:19;100245.63;;;4.29;100.00
12879;BME280;20617;49.476;10.986;2023-02-14T02:56:30;100241.28;;;4.25;100.00
12879;BME280;20617;49.476;10.986;2023-02-14T02:58:50;100244.72;;;4.26;100.00
12879;BME280;20617;49.476;10.986;2023-02-14T03:00:58;100261.00;;;4.23;100.00
12879;BME280;20617;49.476;10.986;2023-02-14T03:03:05;100254.88;;;4.18;100.00
12879;BME280;20617;49.476;10.986;2023-02-14T03:05:23;100262.53;;;4.11;100.00
12879;BME280;20617;49.476;10.986;2023-02-14T03:07:33;100261.63;;;4.10;100.00
12879;BME280;20617;49.476;10.986;2023-02-14T03:09:51;100265.81;;;4.03;100.00
12879;BME280;20617;49.476;10.986;2023-02-14T03:12:05;100254.59;;;4.01;100.00
12879;BME280;20617;49.476;10.986;2023-02-14T03:14:18;100258.09;;;4.02;100.00
12879;BME280;20617;49.476;10.986;2023-02-14T03:16:45;100252.88;;;3.99;100.00
12879;BME280;20617;49.476;10.986;2023-02-14T03:19:12;100261.44;;;3.98;100.00
12879;BME280;20617;49.476;10.986;2023-02-14T03:21:25;100262.34;;;4.00;100.00
12879;BME280;20617;49.476;10.986;2023-02-14T03:23:38;100257.28;;;4.04;100.00
12879;BME280;20617;49.476;10.986;2023-02-14T03:25:57;100259.03;;;4.08;100.00
12879;BME280;20617;49.476;10.986;2023-02-14T03:28:11;100255.59;;;4.08;100.00
12879;BME280;20617;49.476;10.986;2023-02-14T03:30:29;100262.41;;;4.04;100.00
12879;BME280;20617;49.476;10.986;2023-02-14T03:32:42;100262.28;;;3.98;100.00
12879;BME280;20617;49.476;10.986;2023-02-14T03:34:53;100269.06;;;3.90;100.00
12879;BME280;20617;49.476;10.986;2023-02-14T03:37:04;100271.53;;;3.85;100.00
12879;BME280;20617;49.476;10.986;2023-02-14T03:39:18;100274.13;;;3.85;100.00
12879;BME280;20617;49.476;10.986;2023-02-14T03:41:30;100270.69;;;3.86;100.00
12879;BME280;20617;49.476;10.986;2023-02-14T03:43:41;100263.94;;;3.93;100.00
12879;BME280;20617;49.476;10.986;2023-02-14T03:45:50;100263.19;;;3.99;100.00
12879;BME280;20617;49.476;10.986;2023-02-14T03:48:00;100261.47;;;4.01;100.00
12879;BME280;20617;49.476;10.986;2023-02-14T03:50:10;100258.03;;;4.00;100.00
12879;BME280;20617;49.476;10.986;2023-02-14T03:52:18;100257.06;;;3.94;100.00
12879;BME280;20617;49.476;10.986;2023-02-14T03:54:27;100255.38;;;3.94;100.00
12879;BME280;20617;49.476;10.986;2023-02-14T03:56:36;100247.63;;;3.94;100.00
12879;BME280;20617;49.476;10.986;2023-02-14T03:58:44;100253.63;;;3.93;100.00
12879;BME280;20617;49.476;10.986;2023-02-14T04:00:53;100258.81;;;3.95;100.00
12879;BME280;20617;49.476;10.986;2023-02-14T04:03:05;100262.25;;;3.95;100.00
12879;BME280;20617;49.476;10.986;2023-02-14T04:05:15;100258.75;;;3.90;100.00
12879;BME280;20617;49.476;10.986;2023-02-14T04:07:22;100264.81;;;3.95;100.00
12879;BME280;20617;49.476;10.986;2023-02-14T04:09:30;100261.47;;;3.99;100.00
12879;BME280;20617;49.476;10.986;2023-02-14T04:11:35;100257.19;;;4.01;100.00
12879;BME280;20617;49.476;10.986;2023-02-14T04:13:39;100258.94;;;4.02;100.00
12879;BME280;20617;49.476;10.986;2023-02-14T04:15:44;100264.97;;;4.03;100.00
12879;BME280;20617;49.476;10.986;2023-02-14T04:17:49;100260.66;;;4.03;100.00
12879;BME280;20617;49.476;10.986;2023-02-14T04:20:07;100264.16;;;4.05;100.00
12879;BME280;20617;49.476;10.986;2023-02-14T04:22:12;100259.00;;;4.07;100.00
12879;BME280;20617;49.476;10.986;2023-02-14T04:24:17;100258.13;;;4.05;100.00
12879;BME280;20617;49.476;10.986;2023-02-14T04:26:25;100252.16;;;4.07;100.00
12879;BME280;20617;49.476;10.986;2023-02-14T04:28:30;100250.50;;;4.11;100.00
12879;BME280;20617;49.476;10.986;2023-02-14T04:30:35;100244.34;;;4.03;100.00
12879;BME280;20617;49.476;10.986;2023-02-14T04:32:39;100247.69;;;3.97;100.00
12879;BME280;20617;49.476;10.986;2023-02-14T04:34:45;100249.44;;;4.00;100.00
12879;BME280;20617;49.476;10.986;2023-02-14T04:36:50;100249.50;;;4.03;100.00
12879;BME280;20617;49.476;10.986;2023-02-14T04:38:55;100245.09;;;3.97;100.00
12879;BME280;20617;49.476;10.986;2023-02-14T04:41:00;100237.47;;;4.03;100.00
12879;BME280;20617;49.476;10.986;2023-02-14T04:43:07;100240.06;;;4.03;100.00
12879;BME280;20617;49.476;10.986;2023-02-14T04:45:13;100241.81;;;4.04;100.00
12879;BME280;20617;49.476;10.986;2023-02-14T04:47:18;100236.59;;;4.03;100.00
12879;BME280;20617;49.476;10.986;2023-02-14T04:49:23;100229.72;;;4.02;100.00
12879;BME280;20617;49.476;10.986;2023-02-14T04:51:27;100225.41;;;4.01;100.00
12879;BME280;20617;49.476;10.986;2023-02-14T04:53:32;100226.31;;;4.03;100.00
12879;BME280;20617;49.476;10.986;2023-02-14T04:55:43;100229.69;;;3.99;100.00
12879;BME280;20617;49.476;10.986;2023-02-14T04:57:47;100228.84;;;4.01;100.00
12879;BME280;20617;49.476;10.986;2023-02-14T04:59:55;100228.84;;;4.01;100.00
12879;BME280;20617;49.476;10.986;2023-02-14T05:02:00;100230.59;;;4.02;100.00
12879;BME280;20617;49.476;10.986;2023-02-14T05:04:05;100223.59;;;3.94;100.00
12879;BME280;20617;49.476;10.986;2023-02-14T05:06:09;100231.28;;;3.92;100.00
12879;BME280;20617;49.476;10.986;2023-02-14T05:08:14;100235.63;;;3.95;100.00
12879;BME280;20617;49.476;10.986;2023-02-14T05:10:19;100229.59;;;3.93;100.00
12879;BME280;20617;49.476;10.986;2023-02-14T05:12:24;100227.06;;;3.96;100.00
12879;BME280;20617;49.476;10.986;2023-02-14T05:14:29;100221.06;;;3.97;100.00
12879;BME280;20617;49.476;10.986;2023-02-14T05:16:37;100220.28;;;4.02;100.00
12879;BME280;20617;49.476;10.986;2023-02-14T05:18:42;100223.59;;;3.94;100.00
12879;BME280;20617;49.476;10.986;2023-02-14T05:20:48;100226.06;;;3.89;100.00
12879;BME280;20617;49.476;10.986;2023-02-14T05:22:56;100226.94;;;3.90;100.00
12879;BME280;20617;49.476;10.986;2023-02-14T05:25:04;100222.63;;;3.89;100.00
12879;BME280;20617;49.476;10.986;2023-02-14T05:27:09;100229.38;;;3.80;100.00
12879;BME280;20617;49.476;10.986;2023-02-14T05:29:14;100222.50;;;3.81;100.00
12879;BME280;20617;49.476;10.986;2023-02-14T05:31:19;100222.50;;;3.81;100.00
12879;BME280;20617;49.476;10.986;2023-02-14T05:33:27;100216.47;;;3.80;100.00
12879;BME280;20617;49.476;10.986;2023-02-14T05:35:32;100227.69;;;3.82;100.00
12879;BME280;20617;49.476;10.986;2023-02-14T05:37:37;100225.06;;;3.81;100.00
12879;BME280;20617;49.476;10.986;2023-02-14T05:39:42;100223.34;;;3.78;100.00
12879;BME280;20617;49.476;10.986;2023-02-14T05:41:47;100221.69;;;3.83;100.00
12879;BME280;20617;49.476;10.986;2023-02-14T05:43:51;100214.84;;;3.84;100.00
12879;BME280;20617;49.476;10.986;2023-02-14T05:45:56;100216.44;;;3.77;100.00
12879;BME280;20617;49.476;10.986;2023-02-14T05:48:03;100217.34;;;3.79;100.00
12879;BME280;20617;49.476;10.986;2023-02-14T05:50:12;100216.44;;;3.76;100.00
12879;BME280;20617;49.476;10.986;2023-02-14T05:52:16;100217.22;;;3.73;100.00
12879;BME280;20617;49.476;10.986;2023-02-14T05:54:21;100215.53;;;3.74;100.00
12879;BME280;20617;49.476;10.986;2023-02-14T05:56:26;100213.81;;;3.74;100.00
12879;BME280;20617;49.476;10.986;2023-02-14T05:58:31;100217.16;;;3.69;100.00
12879;BME280;20617;49.476;10.986;2023-02-14T06:00:36;100213.75;;;3.71;100.00
12879;BME280;20617;49.476;10.986;2023-02-14T06:02:42;100209.50;;;3.73;100.00
12879;BME280;20617;49.476;10.986;2023-02-14T06:04:47;100221.47;;;3.70;100.00
12879;BME280;20617;49.476;10.986;2023-02-14T06:06:55;100220.53;;;3.65;100.00
12879;BME280;20617;49.476;10.986;2023-02-14T06:09:00;100225.63;;;3.63;100.00
12879;BME280;20617;49.476;10.986;2023-02-14T06:11:05;100217.94;;;3.66;100.00
12879;BME280;20617;49.476;10.986;2023-02-14T06:13:09;100225.63;;;3.61;100.00
12879;BME280;20617;49.476;10.986;2023-02-14T06:15:14;100218.84;;;3.67;100.00
12879;BME280;20617;49.476;10.986;2023-02-14T06:17:19;100224.81;;;3.64;100.00
12879;BME280;20617;49.476;10.986;2023-02-14T06:19:24;100223.09;;;3.66;100.00
12879;BME280;20617;49.476;10.986;2023-02-14T06:21:29;100229.16;;;3.68;100.00
12879;BME280;20617;49.476;10.986;2023-02-14T06:23:36;100227.50;;;3.72;100.00
12879;BME280;20617;49.476;10.986;2023-02-14T06:25:41;100222.38;;;3.73;100.00
12879;BME280;20617;49.476;10.986;2023-02-14T06:27:46;100228.44;;;3.75;100.00
12879;BME280;20617;49.476;10.986;2023-02-14T06:29:51;100226.78;;;3.80;100.00
12879;BME280;20617;49.476;10.986;2023-02-14T06:31:56;100223.44;;;3.84;100.00
12879;BME280;20617;49.476;10.986;2023-02-14T06:34:06;100231.19;;;3.86;100.00
12879;BME280;20617;49.476;10.986;2023-02-14T06:36:11;100225.22;;;3.89;100.00
12879;BME280;20617;49.476;10.986;2023-02-14T06:38:16;100239.81;;;3.88;100.00
12879;BME280;20617;49.476;10.986;2023-02-14T06:40:23;100232.94;;;3.87;100.00
12879;BME280;20617;49.476;10.986;2023-02-14T06:42:28;100234.69;;;3.91;100.00
12879;BME280;20617;49.476;10.986;2023-02-14T06:44:33;100237.31;;;3.94;100.00
12879;BME280;20617;49.476;10.986;2023-02-14T06:46:38;100232.97;;;3.90;100.00
12879;BME280;20617;49.476;10.986;2023-02-14T06:48:43;100238.75;;;3.75;100.00
12879;BME280;20617;49.476;10.986;2023-02-14T06:50:48;100242.19;;;3.76;100.00
12879;BME280;20617;49.476;10.986;2023-02-14T06:52:56;100246.38;;;3.72;100.00
12879;BME280;20617;49.476;10.986;2023-02-14T06:55:02;100252.06;;;3.53;100.00
12879;BME280;20617;49.476;10.986;2023-02-14T06:57:09;100254.69;;;3.56;100.00
12879;BME280;20617;49.476;10.986;2023-02-14T06:59:14;100251.16;;;3.49;100.00
12879;BME280;20617;49.476;10.986;2023-02-14T07:01:19;100249.50;;;3.54;100.00
12879;BME280;20617;49.476;10.986;2023-02-14T07:03:24;100248.63;;;3.52;100.00
12879;BME280;20617;49.476;10.986;2023-02-14T07:05:29;100247.88;;;3.59;100.00
12879;BME280;20617;49.476;10.986;2023-02-14T07:07:33;100246.22;;;3.61;100.00
12879;BME280;20617;49.476;10.986;2023-02-14T07:09:38;100251.31;;;3.60;100.00
12879;BME280;20617;49.476;10.986;2023-02-14T07:11:43;100246.16;;;3.58;100.00
12879;BME280;20617;49.476;10.986;2023-02-14T07:13:51;100242.56;;;3.50;100.00
12879;BME280;20617;49.476;10.986;2023-02-14T07:15:56;100238.34;;;3.54;100.00
12879;BME280;20617;49.476;10.986;2023-02-14T07:18:01;100249.50;;;3.53;100.00
12879;BME280;20617;49.476;10.986;2023-02-14T07:20:06;100239.19;;;3.53;100.00
12879;BME280;20617;49.476;10.986;2023-02-14T07:22:11;100244.34;;;3.53;100.00
12879;BME280;20617;49.476;10.986;2023-02-14T07:24:16;100240.09;;;3.56;100.00
12879;BME280;20617;49.476;10.986;2023-02-14T07:26:21;100250.41;;;3.56;100.00
12879;BME280;20617;49.476;10.986;2023-02-14T07:28:26;100251.28;;;3.57;100.00
12879;BME280;20617;49.476;10.986;2023-02-14T07:30:33;100248.78;;;3.61;100.00
12879;BME280;20617;49.476;10.986;2023-02-14T07:32:40;100248.69;;;3.57;100.00
12879;BME280;20617;49.476;10.986;2023-02-14T07:34:45;100245.34;;;3.61;100.00
12879;BME280;20617;49.476;10.986;2023-02-14T07:36:50;100242.91;;;3.69;100.00
12879;BME280;20617;49.476;10.986;2023-02-14T07:38:56;100238.59;;;3.69;100.00
12879;BME280;20617;49.476;10.986;2023-02-14T07:41:01;100242.84;;;3.64;100.00
12879;BME280;20617;49.476;10.986;2023-02-14T07:43:06;100242.84;;;3.66;100.00
12879;BME280;20617;49.476;10.986;2023-02-14T07:45:11;100241.13;;;3.65;100.00
12879;BME280;20617;49.476;10.986;2023-02-14T07:47:25;100248.84;;;3.66;100.00
12879;BME280;20617;49.476;10.986;2023-02-14T07:49:30;100235.13;;;3.66;100.00
12879;BME280;20617;49.476;10.986;2023-02-14T07:51:35;100232.69;;;3.75;100.00
12879;BME280;20617;49.476;10.986;2023-02-14T07:53:40;100226.78;;;3.79;100.00
12879;BME280;20617;49.476;10.986;2023-02-14T07:55:47;100234.50;;;3.80;100.00
12879;BME280;20617;49.476;10.986;2023-02-14T07:57:52;100227.69;;;3.82;100.00
12879;BME280;20617;49.476;10.986;2023-02-14T07:59:57;100232.78;;;3.79;100.00
12879;BME280;20617;49.476;10.986;2023-02-14T08:02:12;100226.78;;;3.80;100.00
12879;BME280;20617;49.476;10.986;2023-02-14T08:04:20;100225.06;;;3.79;100.00
12879;BME280;20617;49.476;10.986;2023-02-14T08:06:26;100236.16;;;3.75;100.00
12879;BME280;20617;49.476;10.986;2023-02-14T08:08:31;100234.41;;;3.74;100.00
12879;BME280;20617;49.476;10.986;2023-02-14T08:10:36;100228.44;;;3.75;100.00
12879;BME280;20617;49.476;10.986;2023-02-14T08:12:41;100232.59;;;3.67;100.00
12879;BME280;20617;49.476;10.986;2023-02-14T08:14:58;100229.78;;;3.55;100.00
12879;BME280;20617;49.476;10.986;2023-02-14T08:17:23;100221.38;;;3.65;100.00
12879;BME280;20617;49.476;10.986;2023-02-14T08:19:31;100223.06;;;3.63;100.00
12879;BME280;20617;49.476;10.986;2023-02-14T08:21:35;100223.91;;;3.63;100.00
12879;BME280;20617;49.476;10.986;2023-02-14T08:23:40;100222.28;;;3.69;100.00
12879;BME280;20617;49.476;10.986;2023-02-14T08:25:49;100216.19;;;3.63;100.00
12879;BME280;20617;49.476;10.986;2023-02-14T08:27:56;100216.31;;;3.70;100.00
12879;BME280;20617;49.476;10.986;2023-02-14T08:30:01;100218.06;;;3.72;100.00
12879;BME280;20617;49.476;10.986;2023-02-14T08:32:06;100218.81;;;3.65;100.00
12879;BME280;20617;49.476;10.986;2023-02-14T08:34:15;100217.22;;;3.73;100.00
12879;BME280;20617;49.476;10.986;2023-02-14T08:36:22;100219.06;;;3.79;100.00
12879;BME280;20617;49.476;10.986;2023-02-14T08:38:27;100222.72;;;3.93;100.00
12879;BME280;20617;49.476;10.986;2023-02-14T08:40:32;100211.59;;;3.96;100.00
12879;BME280;20617;49.476;10.986;2023-02-14T08:42:38;100218.44;;;3.95;100.00
12879;BME280;20617;49.476;10.986;2023-02-14T08:44:42;100219.38;;;4.00;100.00
12879;BME280;20617;49.476;10.986;2023-02-14T08:46:47;100216.91;;;4.05;100.00
12879;BME280;20617;49.476;10.986;2023-02-14T08:48:52;100215.94;;;4.00;100.00
12879;BME280;20617;49.476;10.986;2023-02-14T08:50:57;100215.91;;;3.98;100.00
12879;BME280;20617;49.476;10.986;2023-02-14T08:53:09;100214.22;;;4.00;100.00
12879;BME280;20617;49.476;10.986;2023-02-14T08:55:14;100209.03;;;3.97;100.00
12879;BME280;20617;49.476;10.986;2023-02-14T08:57:19;100209.06;;;4.00;100.00
12879;BME280;20617;49.476;10.986;2023-02-14T08:59:24;100219.56;;;4.11;100.00
12879;BME280;20617;49.476;10.986;2023-02-14T09:01:29;100213.66;;;4.18;100.00
12879;BME280;20617;49.476;10.986;2023-02-14T09:03:34;100212.00;;;4.22;100.00
12879;BME280;20617;49.476;10.986;2023-02-14T09:05:39;100202.56;;;4.24;100.00
12879;BME280;20617;49.476;10.986;2023-02-14T09:07:44;100200.88;;;4.26;100.00
12879;BME280;20617;49.476;10.986;2023-02-14T09:09:51;100207.75;;;4.27;100.00
12879;BME280;20617;49.476;10.986;2023-02-14T09:11:56;100196.53;;;4.23;100.00
12879;BME280;20617;49.476;10.986;2023-02-14T09:14:01;100206.00;;;4.23;100.00
12879;BME280;20617;49.476;10.986;2023-02-14T09:16:07;100206.03;;;4.26;100.00
12879;BME280;20617;49.476;10.986;2023-02-14T09:18:13;100204.34;;;4.28;100.00
12879;BME280;20617;49.476;10.986;2023-02-14T09:20:17;100194.94;;;4.31;100.00
12879;BME280;20617;49.476;10.986;2023-02-14T09:22:22;100204.38;;;4.29;100.00
12879;BME280;20617;49.476;10.986;2023-02-14T09:24:27;100200.16;;;4.35;100.00
12879;BME280;20617;49.476;10.986;2023-02-14T09:26:34;100203.59;;;4.35;100.00
12879;BME280;20617;49.476;10.986;2023-02-14T09:28:41;100207.88;;;4.36;100.00
12879;BME280;20617;49.476;10.986;2023-02-14T09:30:46;100197.53;;;4.31;100.00
12879;BME280;20617;49.476;10.986;2023-02-14T09:32:54;100199.28;;;4.34;100.00
12879;BME280;20617;49.476;10.986;2023-02-14T09:34:59;100194.06;;;4.29;100.00
12879;BME280;20617;49.476;10.986;2023-02-14T09:37:04;100189.06;;;4.40;100.00
12879;BME280;20617;49.476;10.986;2023-02-14T09:39:07;100194.25;;;4.45;100.00
12879;BME280;20617;49.476;10.986;2023-02-14T09:41:38;100188.34;;;4.52;100.00
12879;BME280;20617;49.476;10.986;2023-02-14T09:43:54;100189.28;;;4.57;100.00
12879;BME280;20617;49.476;10.986;2023-02-14T09:46:02;100189.31;;;4.60;100.00
12879;BME280;20617;49.476;10.986;2023-02-14T09:48:11;100185.94;;;4.63;100.00
12879;BME280;20617;49.476;10.986;2023-02-14T09:50:21;100181.66;;;4.66;100.00
12879;BME280;20617;49.476;10.986;2023-02-14T09:52:29;100184.22;;;4.65;100.00
12879;BME280;20617;49.476;10.986;2023-02-14T09:54:34;100188.47;;;4.60;100.00
12879;BME280;20617;49.476;10.986;2023-02-14T09:56:48;100183.34;;;4.63;100.00
12879;BME280;20617;49.476;10.986;2023-02-14T09:59:00;100179.97;;;4.68;100.00
12879;BME280;20617;49.476;10.986;2023-02-14T10:01:14;100180.03;;;4.71;100.00
12879;BME280;20617;49.476;10.986;2023-02-14T10:03:35;100176.59;;;4.74;100.00
12879;BME280;20617;49.476;10.986;2023-02-14T10:05:46;100180.06;;;4.76;100.00
12879;BME280;20617;49.476;10.986;2023-02-14T10:07:59;100184.44;;;4.80;100.00
12879;BME280;20617;49.476;10.986;2023-02-14T10:10:11;100178.41;;;4.83;100.00
12879;BME280;20617;49.476;10.986;2023-02-14T10:12:31;100180.22;;;4.90;100.00
12879;BME280;20617;49.476;10.986;2023-02-14T10:14:39;100176.75;;;4.88;100.00
12879;BME280;20617;49.476;10.986;2023-02-14T10:16:48;100173.38;;;4.93;100.00
12879;BME280;20617;49.476;10.986;2023-02-14T10:18:59;100178.59;;;4.98;100.00
12879;BME280;20617;49.476;10.986;2023-02-14T10:21:06;100180.41;;;5.04;100.00
12879;BME280;20617;49.476;10.986;2023-02-14T10:23:26;100178.53;;;4.92;100.00
12879;BME280;20617;49.476;10.986;2023-02-14T10:25:39;100178.44;;;4.84;100.00
12879;BME280;20617;49.476;10.986;2023-02-14T10:27:52;100181.97;;;4.92;100.00
12879;BME280;20617;49.476;10.986;2023-02-14T10:29:59;100181.22;;;5.01;100.00
12879;BME280;20617;49.476;10.986;2023-02-14T10:32:12;100170.00;;;4.99;100.00
12879;BME280;20617;49.476;10.986;2023-02-14T10:34:21;100167.53;;;5.08;100.00
12879;BME280;20617;49.476;10.986;2023-02-14T10:36:40;100166.75;;;5.17;100.00
12879;BME280;20617;49.476;10.986;2023-02-14T10:38:55;100161.66;;;5.23;100.00
12879;BME280;20617;49.476;10.986;2023-02-14T10:41:13;100154.84;;;5.31;100.00
12879;BME280;20617;49.476;10.986;2023-02-14T10:43:29;100153.16;;;5.33;100.00
12879;BME280;20617;49.476;10.986;2023-02-14T10:45:44;100155.69;;;5.29;100.00
12879;BME280;20617;49.476;10.986;2023-02-14T10:47:58;100154.91;;;5.36;100.00
12879;BME280;20617;49.476;10.986;2023-02-14T10:50:12;100149.78;;;5.42;100.00
12879;BME280;20617;49.476;10.986;2023-02-14T10:52:24;100143.78;;;5.44;100.00
12879;BME280;20617;49.476;10.986;2023-02-14T10:54:35;100142.84;;;5.38;100.00
12879;BME280;20617;49.476;10.986;2023-02-14T10:56:44;100150.59;;;5.38;100.00
12879;BME280;20617;49.476;10.986;2023-02-14T10:58:54;100143.72;;;5.37;100.00
12879;BME280;20617;49.476;10.986;2023-02-14T11:01:01;100144.63;;;5.43;100.00
12879;BME280;20617;49.476;10.986;2023-02-14T11:03:11;100139.47;;;5.42;100.00
12879;BME280;20617;49.476;10.986;2023-02-14T11:05:24;100142.97;;;5.47;100.00
12879;BME280;20617;49.476;10.986;2023-02-14T11:07:29;100146.38;;;5.46;100.00
12879;BME280;20617;49.476;10.986;2023-02-14T11:09:34;100136.03;;;5.46;100.00
12879;BME280;20617;49.476;10.986;2023-02-14T11:11:43;100135.09;;;5.38;100.00
12879;BME280;20617;49.476;10.986;2023-02-14T11:13:51;100129.13;;;5.42;100.00